Time;durP1;ratioP1;P1;durP2;ratioP2;P2;SDS_P1;SDS_P2;PMS_P1;PMS_P2;Temp;Humidity;BMP_temperature;BMP_pressure;BME280_temperature;BME280_humidity;BME280_pressure;Samples;Min_cycle;Max_cycle;Signal;HPM_P1;HPM_P2
2023/08/06 00:01:13;;;;;;;8.30;6.90;;;18.90;99.90;;;;;;4995464;28;20481;-63
2023/08/06 00:03:40;;;;;;;7.73;6.57;;;18.90;99.90;;;;;;4995534;28;20449;-61
2023/08/06 00:06:07;;;;;;;11.33;7.13;;;18.90;99.90;;;;;;4996571;28;20449;-65
2023/08/06 00:08:34;;;;;;;24.03;7.70;;;18.90;99.90;;;;;;4997620;28;20564;-61
2023/08/06 00:11:01;;;;;;;8.93;6.20;;;18.80;99.90;;;;;;5001328;28;20531;-60
2023/08/06 00:13:29;;;;;;;10.00;7.80;;;18.90;99.90;;;;;;5003432;28;20493;-55
2023/08/06 00:15:56;;;;;;;10.50;6.70;;;18.90;99.90;;;;;;5002018;28;20430;-60
2023/08/06 00:18:23;;;;;;;7.13;6.43;;;18.90;99.90;;;;;;4998997;28;20449;-59
2023/08/06 00:20:50;;;;;;;9.83;7.17;;;18.90;99.90;;;;;;4999719;28;20457;-59
2023/08/06 00:23:17;;;;;;;17.83;8.90;;;18.90;99.90;;;;;;5004466;28;20473;-61
2023/08/06 00:25:44;;;;;;;8.50;7.30;;;18.90;99.90;;;;;;5006050;28;20469;-60
2023/08/06 00:28:11;;;;;;;7.27;6.50;;;18.90;99.90;;;;;;5007259;28;20430;-61
2023/08/06 00:30:40;;;;;;;7.63;6.37;;;18.90;99.90;;;;;;5003769;28;20918;-60
2023/08/06 00:33:08;;;;;;;10.50;7.10;;;18.90;99.90;;;;;;5005161;28;20488;-59
2023/08/06 00:35:35;;;;;;;7.13;6.20;;;18.90;99.90;;;;;;5013002;28;20486;-63
2023/08/06 00:38:02;;;;;;;14.13;6.83;;;18.90;99.90;;;;;;5013906;28;20466;-59
2023/08/06 00:40:30;;;;;;;8.80;7.17;;;18.90;99.90;;;;;;5006438;28;20437;-60
2023/08/06 00:42:57;;;;;;;10.17;7.03;;;18.90;99.90;;;;;;5001964;28;20504;-61
2023/08/06 00:45:24;;;;;;;10.10;7.70;;;18.80;99.90;;;;;;5001921;28;20518;-60
2023/08/06 00:47:53;;;;;;;7.60;6.40;;;18.80;99.90;;;;;;5002248;28;20442;-59
2023/08/06 00:50:22;;;;;;;8.07;7.20;;;18.80;99.90;;;;;;5002072;28;20544;-60
2023/08/06 00:52:49;;;;;;;9.30;6.40;;;18.80;99.90;;;;;;4998260;28;20489;-60
2023/08/06 00:55:16;;;;;;;8.93;6.60;;;18.80;99.90;;;;;;4997896;28;20453;-61
2023/08/06 00:57:43;;;;;;;10.00;7.80;;;18.80;99.90;;;;;;4998078;28;20533;-59
2023/08/06 01:00:11;;;;;;;9.03;6.70;;;18.80;99.90;;;;;;4999198;28;20430;-60
2023/08/06 01:02:38;;;;;;;9.23;6.47;;;18.80;99.90;;;;;;4999001;28;20502;-60
2023/08/06 01:05:10;;;;;;;8.67;7.30;;;18.80;99.90;;;;;;4998333;28;20532;-57
2023/08/06 01:07:51;;;;;;;7.93;6.40;;;18.70;99.90;;;;;;4998246;28;20426;-59
2023/08/06 01:10:29;;;;;;;8.57;7.23;;;18.80;99.90;;;;;;4998147;28;20454;-61
2023/08/06 01:13:07;;;;;;;6.97;6.27;;;18.70;99.90;;;;;;4997741;28;20466;-63
2023/08/06 01:15:42;;;;;;;11.50;7.20;;;18.70;99.90;;;;;;5001487;28;20492;-58
2023/08/06 01:18:09;;;;;;;10.23;6.27;;;18.70;99.90;;;;;;5019263;28;20441;-52
2023/08/06 01:20:38;;;;;;;8.50;6.93;;;18.70;99.90;;;;;;5017410;28;20505;-59
2023/08/06 01:23:04;;;;;;;8.23;6.80;;;18.70;99.90;;;;;;5005201;28;20422;-59
2023/08/06 01:25:36;;;;;;;8.10;6.33;;;18.70;99.90;;;;;;5012538;28;20934;-58
2023/08/06 01:28:11;;;;;;;8.07;7.00;;;18.70;99.90;;;;;;5001055;28;20430;-63
2023/08/06 01:30:42;;;;;;;9.23;7.57;;;18.70;99.90;;;;;;5003042;28;20434;-61
2023/08/06 01:33:12;;;;;;;8.00;7.00;;;18.60;99.90;;;;;;5004091;28;20536;-60
2023/08/06 01:35:41;;;;;;;7.73;6.87;;;18.60;99.90;;;;;;5003497;28;20430;-62
2023/08/06 01:38:09;;;;;;;9.53;7.30;;;18.60;99.90;;;;;;5001778;28;20536;-59
2023/08/06 01:40:36;;;;;;;12.43;8.23;;;18.60;99.90;;;;;;4998949;28;20481;-60
2023/08/06 01:43:03;;;;;;;6.53;5.93;;;18.60;99.90;;;;;;4997434;28;20477;-63
2023/08/06 01:45:29;;;;;;;8.30;6.93;;;18.60;99.90;;;;;;4996940;28;20524;-61
2023/08/06 01:47:56;;;;;;;10.93;7.07;;;18.50;99.90;;;;;;4997552;28;20477;-64
2023/08/06 01:50:23;;;;;;;8.27;7.47;;;18.50;99.90;;;;;;4997524;28;20845;-61
2023/08/06 01:52:52;;;;;;;12.53;7.03;;;18.50;99.90;;;;;;4997832;28;20513;-63
2023/08/06 01:55:19;;;;;;;11.70;7.57;;;18.50;99.90;;;;;;4997995;28;20446;-62
2023/08/06 01:57:46;;;;;;;9.00;7.13;;;18.50;99.90;;;;;;4998149;28;20776;-62
2023/08/06 02:00:13;;;;;;;8.40;7.50;;;18.40;99.90;;;;;;4997326;28;20435;-62
2023/08/06 02:02:41;;;;;;;7.60;6.37;;;18.40;99.90;;;;;;4997520;28;20532;-58
2023/08/06 02:05:08;;;;;;;7.50;6.57;;;18.40;99.90;;;;;;4996990;28;20533;-58
2023/08/06 02:07:35;;;;;;;7.07;6.37;;;18.40;99.90;;;;;;4996647;28;20629;-59
2023/08/06 02:10:04;;;;;;;9.20;6.77;;;18.40;99.90;;;;;;4999244;28;20493;-63
2023/08/06 02:12:31;;;;;;;7.80;7.00;;;18.40;99.90;;;;;;5002776;28;20442;-62
2023/08/06 02:14:57;;;;;;;8.43;7.20;;;18.30;99.90;;;;;;5004145;28;20446;-63
2023/08/06 02:17:24;;;;;;;10.07;7.73;;;18.30;99.90;;;;;;5003877;28;20510;-59
2023/08/06 02:19:51;;;;;;;10.80;8.87;;;18.30;99.90;;;;;;5003412;28;20465;-60
2023/08/06 02:22:18;;;;;;;10.03;8.30;;;18.30;99.90;;;;;;5003467;28;20509;-60
2023/08/06 02:24:45;;;;;;;8.67;7.43;;;18.30;99.90;;;;;;5003800;28;20474;-65
2023/08/06 02:27:15;;;;;;;7.37;6.60;;;18.30;99.90;;;;;;5003334;28;20462;-66
2023/08/06 02:29:42;;;;;;;11.93;8.60;;;18.30;99.90;;;;;;4997095;28;20446;-63
2023/08/06 02:32:09;;;;;;;11.27;7.97;;;18.20;99.90;;;;;;4996348;28;20537;-56
2023/08/06 02:34:36;;;;;;;13.30;8.87;;;18.20;99.90;;;;;;4996294;28;20517;-58
2023/08/06 02:37:03;;;;;;;10.10;8.43;;;18.20;99.90;;;;;;4996282;28;20850;-57
2023/08/06 02:39:29;;;;;;;9.20;7.37;;;18.20;99.90;;;;;;4996829;28;20525;-63
2023/08/06 02:41:56;;;;;;;9.60;8.60;;;18.20;99.90;;;;;;4996884;28;20442;-60
2023/08/06 02:44:28;;;;;;;9.67;7.87;;;18.10;99.90;;;;;;4999278;28;20533;-61
2023/08/06 02:46:55;;;;;;;9.03;7.47;;;18.00;99.90;;;;;;4999425;28;20501;-61
2023/08/06 02:49:22;;;;;;;8.40;7.13;;;18.00;99.90;;;;;;4999453;28;20473;-59
2023/08/06 02:51:49;;;;;;;7.50;6.60;;;18.00;99.90;;;;;;4999648;28;20839;-59
2023/08/06 02:54:16;;;;;;;8.47;6.60;;;17.90;99.90;;;;;;4998947;28;21007;-59
2023/08/06 02:56:44;;;;;;;8.87;7.20;;;18.00;99.90;;;;;;4996114;28;20446;-61
2023/08/06 02:59:11;;;;;;;8.37;6.83;;;17.90;99.90;;;;;;4995890;28;20549;-60
2023/08/06 03:01:40;;;;;;;12.27;7.30;;;17.80;99.90;;;;;;4995660;28;20481;-60
2023/08/06 03:04:07;;;;;;;7.90;6.60;;;17.80;99.90;;;;;;4995659;28;20979;-59
2023/08/06 03:06:33;;;;;;;6.53;5.87;;;17.90;99.90;;;;;;4998314;28;20458;-60
2023/08/06 03:09:00;;;;;;;6.77;5.43;;;17.80;99.90;;;;;;5003148;28;20456;-61
2023/08/06 03:11:29;;;;;;;7.20;5.30;;;17.80;99.90;;;;;;4999860;28;20931;-60
2023/08/06 03:13:56;;;;;;;6.90;6.10;;;17.80;99.90;;;;;;4999490;28;20489;-56
2023/08/06 03:16:23;;;;;;;8.97;6.50;;;17.80;99.90;;;;;;4999275;28;20446;-62
2023/08/06 03:18:51;;;;;;;13.37;9.70;;;17.80;99.90;;;;;;4999539;28;20426;-62
2023/08/06 03:21:18;;;;;;;7.80;5.60;;;17.80;99.90;;;;;;4997928;28;20508;-58
2023/08/06 03:23:48;;;;;;;7.97;6.13;;;17.80;99.90;;;;;;4998304;28;20543;-61
2023/08/06 03:26:15;;;;;;;8.33;6.10;;;17.80;99.90;;;;;;4998300;28;20488;-62
2023/08/06 03:28:42;;;;;;;5.90;5.13;;;17.80;99.90;;;;;;4999581;28;20806;-58
2023/08/06 03:31:09;;;;;;;9.03;6.67;;;17.70;99.90;;;;;;4995685;28;20453;-58
2023/08/06 03:33:36;;;;;;;6.73;5.47;;;17.70;99.90;;;;;;4996065;28;20811;-58
2023/08/06 03:36:05;;;;;;;6.83;5.77;;;17.60;99.90;;;;;;4995108;28;20513;-60
2023/08/06 03:38:32;;;;;;;6.13;5.53;;;17.60;99.90;;;;;;4995161;28;20457;-59
2023/08/06 03:40:58;;;;;;;5.43;4.93;;;17.60;99.90;;;;;;4994992;28;20474;-60
2023/08/06 03:43:25;;;;;;;6.00;5.07;;;17.60;99.90;;;;;;4996231;28;20446;-60
2023/08/06 03:45:52;;;;;;;6.90;5.70;;;17.50;99.90;;;;;;4995082;28;20441;-59
2023/08/06 03:48:19;;;;;;;6.87;6.00;;;17.50;99.90;;;;;;4997179;28;20532;-61
2023/08/06 03:50:46;;;;;;;7.23;5.43;;;17.60;99.90;;;;;;4999452;28;20449;-64
2023/08/06 03:53:14;;;;;;;7.50;6.70;;;17.50;99.90;;;;;;5000213;28;20489;-60
2023/08/06 03:55:41;;;;;;;7.40;5.40;;;17.50;99.90;;;;;;5002384;28;20436;-60
2023/08/06 03:58:08;;;;;;;5.07;4.57;;;17.50;99.90;;;;;;5002148;28;20911;-61
2023/08/06 04:00:35;;;;;;;9.70;5.97;;;17.50;99.90;;;;;;5001388;28;20473;-60
2023/08/06 04:03:02;;;;;;;6.00;5.43;;;17.50;99.90;;;;;;5002459;28;20540;-60
2023/08/06 04:05:32;;;;;;;6.57;5.87;;;17.60;99.90;;;;;;5003485;28;20470;-60
2023/08/06 04:07:59;;;;;;;7.23;5.57;;;17.60;99.90;;;;;;5003197;28;20446;-60
2023/08/06 04:10:28;;;;;;;6.80;5.60;;;17.50;99.90;;;;;;5002803;28;20946;-60
2023/08/06 04:12:55;;;;;;;6.93;6.03;;;17.60;99.90;;;;;;5003111;28;20446;-60
2023/08/06 04:15:21;;;;;;;7.37;6.20;;;17.50;99.90;;;;;;5003572;28;20477;-61
2023/08/06 04:17:48;;;;;;;5.63;5.10;;;17.50;99.90;;;;;;5006607;28;20466;-60
2023/08/06 04:20:15;;;;;;;6.50;5.70;;;17.50;99.90;;;;;;5008094;28;20457;-60
2023/08/06 04:22:42;;;;;;;6.50;5.40;;;17.40;99.90;;;;;;5004562;28;20453;-60
2023/08/06 04:25:10;;;;;;;7.10;6.10;;;17.40;99.90;;;;;;5003312;28;20860;-61
2023/08/06 04:27:41;;;;;;;7.20;6.50;;;17.30;99.90;;;;;;5003854;28;20441;-61
2023/08/06 04:30:09;;;;;;;8.77;6.90;;;17.30;99.90;;;;;;5003732;28;20474;-60
2023/08/06 04:32:36;;;;;;;9.50;5.90;;;17.30;99.90;;;;;;5004010;28;20449;-56
2023/08/06 04:35:03;;;;;;;6.67;5.53;;;17.30;99.90;;;;;;5004164;28;20485;-60
2023/08/06 04:37:29;;;;;;;8.83;6.17;;;17.30;99.90;;;;;;5004511;28;20450;-60
2023/08/06 04:39:56;;;;;;;8.03;6.17;;;17.30;99.90;;;;;;5003288;28;20480;-62
2023/08/06 04:42:23;;;;;;;6.23;5.30;;;17.20;99.90;;;;;;5002549;28;20497;-62
2023/08/06 04:44:52;;;;;;;9.63;6.00;;;17.30;99.90;;;;;;5002696;28;20469;-60
2023/08/06 04:47:19;;;;;;;10.47;5.70;;;17.30;99.90;;;;;;5002251;28;20500;-60
2023/08/06 04:49:46;;;;;;;9.20;6.03;;;17.30;99.90;;;;;;5002620;28;20755;-60
2023/08/06 04:52:13;;;;;;;7.20;6.07;;;17.30;99.90;;;;;;5002848;28;20453;-58
2023/08/06 04:54:39;;;;;;;6.67;6.03;;;17.30;99.90;;;;;;5002509;28;20489;-60
2023/08/06 04:57:06;;;;;;;6.47;5.37;;;17.30;99.90;;;;;;5002717;28;20477;-60
2023/08/06 04:59:33;;;;;;;7.80;5.97;;;17.30;99.90;;;;;;5001151;28;20496;-61
2023/08/06 05:02:02;;;;;;;8.90;7.13;;;17.30;99.90;;;;;;5002614;28;20457;-61
2023/08/06 05:04:29;;;;;;;7.33;6.23;;;17.30;99.90;;;;;;5002585;28;20442;-60
2023/08/06 05:06:55;;;;;;;5.57;5.07;;;17.40;99.90;;;;;;5002292;28;20862;-59
2023/08/06 05:09:22;;;;;;;6.90;6.17;;;17.40;99.90;;;;;;5002469;28;20987;-60
2023/08/06 05:11:50;;;;;;;7.40;5.50;;;17.40;99.90;;;;;;5001865;28;20533;-61
2023/08/06 05:14:20;;;;;;;6.93;5.67;;;17.40;99.90;;;;;;5001402;28;20508;-59
2023/08/06 05:16:47;;;;;;;11.23;6.50;;;17.40;99.90;;;;;;5000976;28;20442;-60
2023/08/06 05:19:16;;;;;;;7.10;6.30;;;17.40;99.90;;;;;;5001794;28;20569;-58
2023/08/06 05:21:43;;;;;;;9.50;6.60;;;17.40;99.90;;;;;;5001938;28;20786;-61
2023/08/06 05:24:09;;;;;;;6.67;6.00;;;17.40;99.90;;;;;;5001754;28;20442;-60
2023/08/06 05:26:36;;;;;;;6.23;4.70;;;17.40;99.90;;;;;;5001073;28;20544;-61
2023/08/06 05:29:04;;;;;;;7.17;5.30;;;17.40;99.90;;;;;;5011095;28;20443;-57
2023/08/06 05:31:31;;;;;;;7.27;6.30;;;17.40;99.90;;;;;;5004344;28;20458;-51
2023/08/06 05:33:58;;;;;;;6.40;5.73;;;17.40;99.90;;;;;;5021337;28;20438;-48
2023/08/06 05:36:26;;;;;;;6.83;5.60;;;17.40;99.90;;;;;;5021298;28;20402;-53
2023/08/06 05:38:53;;;;;;;6.10;5.07;;;17.40;99.90;;;;;;5020583;28;20411;-58
2023/08/06 05:41:20;;;;;;;8.50;6.07;;;17.50;99.90;;;;;;5018373;28;20449;-59
2023/08/06 05:43:47;;;;;;;8.67;5.97;;;17.50;99.90;;;;;;5012434;28;20481;-56
2023/08/06 05:46:14;;;;;;;8.07;7.00;;;17.50;99.90;;;;;;4997348;28;20766;-59
2023/08/06 05:48:40;;;;;;;7.77;6.50;;;17.50;99.90;;;;;;4997334;28;20767;-58
2023/08/06 05:51:07;;;;;;;6.33;5.73;;;17.60;99.90;;;;;;4997579;28;20537;-60
2023/08/06 05:53:36;;;;;;;7.27;5.73;;;17.70;99.90;;;;;;5000948;28;20310;-57
2023/08/06 05:56:02;;;;;;;6.60;5.97;;;17.70;99.90;;;;;;5005233;28;20492;-59
2023/08/06 05:58:30;;;;;;;8.20;6.73;;;17.70;99.90;;;;;;5006036;28;20911;-58
2023/08/06 06:00:57;;;;;;;6.63;5.50;;;17.70;99.90;;;;;;5009207;28;20461;-57
2023/08/06 06:03:24;;;;;;;6.80;5.97;;;17.70;99.90;;;;;;5011837;28;20461;-59
2023/08/06 06:05:50;;;;;;;8.40;5.90;;;17.60;99.90;;;;;;5011692;28;20454;-59
2023/08/06 06:08:17;;;;;;;8.53;7.07;;;17.60;99.90;;;;;;5011675;28;20466;-58
2023/08/06 06:10:45;;;;;;;21.57;10.90;;;17.70;99.90;;;;;;5003164;28;20541;-59
2023/08/06 06:13:12;;;;;;;8.10;6.60;;;17.70;99.90;;;;;;5002913;28;20466;-60
2023/08/06 06:15:39;;;;;;;7.57;5.93;;;17.70;99.90;;;;;;5003571;28;20508;-59
2023/08/06 06:18:06;;;;;;;7.53;5.50;;;17.80;99.90;;;;;;4996673;28;20477;-59
2023/08/06 06:20:33;;;;;;;6.90;5.33;;;17.80;99.90;;;;;;4996575;28;20501;-59
2023/08/06 06:23:00;;;;;;;8.10;5.87;;;17.80;99.90;;;;;;4996601;28;20453;-59
2023/08/06 06:25:27;;;;;;;8.60;6.03;;;17.80;99.90;;;;;;5002732;28;20525;-60
2023/08/06 06:27:55;;;;;;;6.93;5.83;;;17.80;99.90;;;;;;5009216;28;20987;-59
2023/08/06 06:30:22;;;;;;;9.40;7.23;;;17.90;99.90;;;;;;5010998;28;20493;-58
2023/08/06 06:32:49;;;;;;;6.97;5.87;;;17.90;99.90;;;;;;5001285;28;20470;-56
2023/08/06 06:35:16;;;;;;;6.20;5.67;;;17.90;99.90;;;;;;4996277;28;20488;-59
2023/08/06 06:37:43;;;;;;;7.33;6.47;;;18.00;99.90;;;;;;4999838;28;20478;-58
2023/08/06 06:40:11;;;;;;;7.17;6.47;;;18.00;99.90;;;;;;5002717;28;20454;-57
2023/08/06 06:42:37;;;;;;;7.03;5.87;;;18.10;99.90;;;;;;5004275;28;20518;-58
2023/08/06 06:45:07;;;;;;;6.90;4.90;;;18.10;99.90;;;;;;5002697;28;20490;-59
2023/08/06 06:47:34;;;;;;;7.07;6.33;;;18.10;99.90;;;;;;5000180;28;20589;-58
2023/08/06 06:50:00;;;;;;;10.07;7.17;;;18.20;99.90;;;;;;4998306;28;20548;-59
2023/08/06 06:52:27;;;;;;;7.70;6.93;;;18.20;99.90;;;;;;4998233;28;20899;-59
2023/08/06 06:54:54;;;;;;;8.07;6.70;;;18.20;99.90;;;;;;4998347;28;20492;-58
2023/08/06 06:57:23;;;;;;;8.73;7.10;;;18.10;99.90;;;;;;5000710;28;20557;-58
2023/08/06 06:59:52;;;;;;;7.60;6.50;;;18.10;99.90;;;;;;5002340;28;20454;-59
2023/08/06 07:02:20;;;;;;;7.20;6.50;;;18.30;99.90;;;;;;5003295;28;20490;-59
2023/08/06 07:04:47;;;;;;;7.53;6.77;;;18.20;99.90;;;;;;5007512;28;20423;-58
2023/08/06 07:07:14;;;;;;;7.53;6.40;;;18.20;99.90;;;;;;5007939;28;20569;-55
2023/08/06 07:09:41;;;;;;;7.17;6.20;;;18.20;99.90;;;;;;5007305;28;20470;-57
2023/08/06 07:12:08;;;;;;;8.27;7.13;;;18.20;99.90;;;;;;5007882;28;20473;-57
2023/08/06 07:14:35;;;;;;;7.70;6.90;;;18.30;99.90;;;;;;5007284;28;20494;-58
2023/08/06 07:17:02;;;;;;;8.93;6.50;;;18.30;99.90;;;;;;5007550;28;20518;-56
2023/08/06 07:19:30;;;;;;;9.57;7.43;;;18.40;99.90;;;;;;5007153;28;20442;-59
2023/08/06 07:21:57;;;;;;;9.27;7.03;;;18.40;99.90;;;;;;5007060;28;20470;-58
2023/08/06 07:24:24;;;;;;;13.40;7.97;;;18.50;99.90;;;;;;5006886;28;20449;-59
2023/08/06 07:26:52;;;;;;;9.93;8.23;;;18.50;99.90;;;;;;5006913;28;20466;-59
2023/08/06 07:29:21;;;;;;;8.03;6.93;;;18.60;99.90;;;;;;5007507;28;20477;-59
2023/08/06 07:31:49;;;;;;;10.30;7.20;;;18.60;99.90;;;;;;5009472;28;20452;-60
2023/08/06 07:34:16;;;;;;;11.87;6.73;;;18.50;99.90;;;;;;5011488;28;20450;-58
2023/08/06 07:36:47;;;;;;;9.03;7.00;;;18.50;99.90;;;;;;5015221;28;20469;-59
2023/08/06 07:39:16;;;;;;;10.33;7.27;;;18.50;99.90;;;;;;5015168;28;20470;-58
2023/08/06 07:41:45;;;;;;;7.73;6.93;;;18.50;99.90;;;;;;5015478;28;20485;-59
2023/08/06 07:44:16;;;;;;;11.90;7.40;;;18.50;99.90;;;;;;5015181;28;20526;-56
2023/08/06 07:46:42;;;;;;;8.93;6.70;;;18.60;99.90;;;;;;5014393;28;20482;-59
2023/08/06 07:49:10;;;;;;;8.10;7.00;;;18.50;99.90;;;;;;5015407;28;20433;-58
2023/08/06 07:51:37;;;;;;;8.40;7.30;;;18.50;99.90;;;;;;4996912;28;20438;-59
2023/08/06 07:54:06;;;;;;;8.97;6.93;;;18.50;99.90;;;;;;4995277;28;20537;-57
2023/08/06 07:56:33;;;;;;;8.47;5.33;;;18.50;99.90;;;;;;4995212;28;20458;-59
2023/08/06 07:59:00;;;;;;;7.87;6.50;;;18.50;99.90;;;;;;4995034;28;20985;-58
2023/08/06 08:01:27;;;;;;;6.30;4.93;;;18.50;99.90;;;;;;4997796;28;20466;-55
2023/08/06 08:03:54;;;;;;;9.03;5.60;;;18.40;99.90;;;;;;5005114;28;20533;-60
2023/08/06 08:06:21;;;;;;;7.47;5.03;;;18.30;99.90;;;;;;5005806;28;20485;-59
2023/08/06 08:08:48;;;;;;;6.67;5.80;;;18.20;99.90;;;;;;4995245;28;20501;-59
2023/08/06 08:11:16;;;;;;;16.20;6.70;;;18.40;99.90;;;;;;4995067;28;20442;-60
2023/08/06 08:13:43;;;;;;;5.80;4.63;;;18.20;99.90;;;;;;4996548;28;20446;-59
2023/08/06 08:16:10;;;;;;;7.17;6.20;;;18.20;99.90;;;;;;4997985;28;20547;-59
2023/08/06 08:18:37;;;;;;;6.90;6.20;;;18.20;99.90;;;;;;4995046;28;20470;-53
2023/08/06 08:21:04;;;;;;;8.73;5.40;;;18.20;99.90;;;;;;4995107;28;20478;-59
2023/08/06 08:23:32;;;;;;;7.80;5.43;;;18.30;99.90;;;;;;4995005;28;20812;-58
2023/08/06 08:25:59;;;;;;;6.20;5.63;;;18.40;99.90;;;;;;5000590;28;20458;-50
2023/08/06 08:28:27;;;;;;;8.27;6.70;;;18.40;99.90;;;;;;5018785;28;20414;-51
2023/08/06 08:30:57;;;;;;;6.97;5.77;;;18.40;99.90;;;;;;5014454;28;20430;-49
2023/08/06 08:33:24;;;;;;;8.43;6.40;;;18.50;99.90;;;;;;5018953;28;20414;-50
2023/08/06 08:35:51;;;;;;;7.50;6.17;;;18.60;99.90;;;;;;5020622;28;20470;-59
2023/08/06 08:38:18;;;;;;;9.40;6.60;;;18.60;99.90;;;;;;5002880;28;20823;-59
2023/08/06 08:40:47;;;;;;;8.97;6.70;;;18.70;99.90;;;;;;4998485;28;20519;-56
2023/08/06 08:43:15;;;;;;;7.37;6.50;;;18.70;99.90;;;;;;4998549;28;20456;-60
2023/08/06 08:45:44;;;;;;;9.47;7.40;;;18.80;99.90;;;;;;5007974;28;20442;-59
2023/08/06 08:48:13;;;;;;;7.23;6.53;;;18.90;99.90;;;;;;5010766;28;20454;-60
2023/08/06 08:50:41;;;;;;;7.93;6.90;;;19.00;99.90;;;;;;5014932;28;20449;-56
2023/08/06 08:53:08;;;;;;;8.93;7.27;;;19.10;99.90;;;;;;5019165;28;20466;-55
2023/08/06 08:55:36;;;;;;;8.33;7.43;;;19.10;99.90;;;;;;5013371;28;20572;-60
2023/08/06 08:58:03;;;;;;;8.80;7.90;;;19.10;99.90;;;;;;5012824;28;20497;-59
2023/08/06 09:00:30;;;;;;;11.23;7.60;;;19.10;99.90;;;;;;5012065;28;20457;-59
2023/08/06 09:03:01;;;;;;;8.80;7.87;;;19.20;99.90;;;;;;5010730;28;20479;-60
2023/08/06 09:05:30;;;;;;;9.40;8.23;;;19.30;99.90;;;;;;5015318;28;20431;-58
2023/08/06 09:08:03;;;;;;;9.90;7.40;;;19.30;99.90;;;;;;5017659;28;20450;-58
2023/08/06 09:10:30;;;;;;;7.90;6.20;;;19.30;99.90;;;;;;5017882;28;20430;-54
2023/08/06 09:13:00;;;;;;;13.10;8.37;;;19.50;99.90;;;;;;5017507;28;20530;-57
2023/08/06 09:15:28;;;;;;;9.10;7.93;;;19.50;99.90;;;;;;5012938;28;20489;-59
2023/08/06 09:17:55;;;;;;;10.03;7.93;;;19.50;99.90;;;;;;5009001;28;20450;-59
2023/08/06 09:20:24;;;;;;;11.10;8.70;;;19.50;99.90;;;;;;5009372;28;20497;-58
2023/08/06 09:22:53;;;;;;;9.77;8.20;;;19.60;99.90;;;;;;5012289;28;20430;-60
2023/08/06 09:25:24;;;;;;;8.83;7.93;;;19.70;99.90;;;;;;5006780;28;20438;-57
2023/08/06 09:27:51;;;;;;;8.17;7.40;;;19.80;99.90;;;;;;5002163;28;20517;-59
2023/08/06 09:30:30;;;;;;;9.27;8.37;;;19.80;99.90;;;;;;5006528;28;20465;-59
2023/08/06 09:32:58;;;;;;;10.00;8.87;;;19.80;99.90;;;;;;5007648;28;20573;-57
2023/08/06 09:35:30;;;;;;;11.03;8.60;;;19.70;99.90;;;;;;5007739;28;20506;-59
2023/08/06 09:37:57;;;;;;;9.40;8.33;;;19.70;99.90;;;;;;5011461;28;20557;-56
2023/08/06 09:40:28;;;;;;;16.00;8.37;;;19.70;99.90;;;;;;5016773;28;20491;-57
2023/08/06 09:42:55;;;;;;;10.67;9.60;;;19.70;99.90;;;;;;4996912;28;20484;-59
2023/08/06 09:45:22;;;;;;;11.70;9.07;;;19.60;99.90;;;;;;4996368;28;20457;-59
2023/08/06 09:47:50;;;;;;;11.27;8.30;;;19.60;99.90;;;;;;4997022;28;20442;-59
2023/08/06 09:50:19;;;;;;;9.60;8.47;;;19.60;99.90;;;;;;4996913;28;20456;-58
2023/08/06 09:52:48;;;;;;;10.67;9.03;;;19.60;99.90;;;;;;4998329;28;20448;-58
2023/08/06 09:55:15;;;;;;;9.10;8.20;;;19.60;99.90;;;;;;4999211;28;20584;-59
2023/08/06 09:57:43;;;;;;;9.83;8.73;;;19.50;99.90;;;;;;4998819;28;21006;-56
2023/08/06 10:00:13;;;;;;;14.03;9.00;;;19.50;99.90;;;;;;4998982;28;20508;-59
2023/08/06 10:02:40;;;;;;;9.83;8.60;;;19.40;99.90;;;;;;4999339;28;20950;-61
2023/08/06 10:05:09;;;;;;;10.03;9.00;;;19.30;99.90;;;;;;4996896;28;20508;-59
2023/08/06 10:07:38;;;;;;;9.30;7.80;;;19.30;99.90;;;;;;4996739;28;20513;-59
2023/08/06 10:10:08;;;;;;;11.43;9.00;;;19.20;99.90;;;;;;4997136;28;20450;-59
2023/08/06 10:12:39;;;;;;;13.83;9.73;;;19.20;99.90;;;;;;4997419;28;20466;-59
2023/08/06 10:15:11;;;;;;;12.57;9.87;;;19.10;99.90;;;;;;5000567;28;20896;-59
2023/08/06 10:17:39;;;;;;;11.67;9.10;;;19.00;99.90;;;;;;5010457;28;20456;-56
2023/08/06 10:20:08;;;;;;;11.70;9.53;;;19.00;99.90;;;;;;5015169;28;20422;-58
2023/08/06 10:22:35;;;;;;;12.50;9.80;;;18.90;99.90;;;;;;5011004;28;20460;-59
2023/08/06 10:25:05;;;;;;;14.90;9.60;;;18.90;99.90;;;;;;4997799;28;20517;-61
2023/08/06 10:27:34;;;;;;;10.90;9.30;;;18.80;99.90;;;;;;4996442;28;20454;-58
2023/08/06 10:30:26;;;;;;;12.53;10.83;;;18.80;99.90;;;;;;4996658;28;20437;-60
2023/08/06 10:32:54;;;;;;;14.00;10.20;;;18.70;99.90;;;;;;4997498;28;20460;-59
2023/08/06 10:35:35;;;;;;;18.27;12.03;;;18.70;99.90;;;;;;4996091;28;20544;-59
2023/08/06 10:38:06;;;;;;;14.17;9.70;;;18.60;99.90;;;;;;4998325;28;20521;-59
2023/08/06 10:40:34;;;;;;;14.00;8.87;;;18.60;99.90;;;;;;4996867;28;20446;-59
2023/08/06 10:43:03;;;;;;;14.73;9.57;;;18.50;99.90;;;;;;4996375;28;20466;-60
2023/08/06 10:45:30;;;;;;;12.00;9.07;;;18.50;99.90;;;;;;4996004;28;20973;-57
2023/08/06 10:47:58;;;;;;;11.23;9.73;;;18.50;99.90;;;;;;4996129;28;20465;-60
2023/08/06 10:50:26;;;;;;;10.63;9.03;;;18.50;99.90;;;;;;4995815;28;20438;-60
2023/08/06 10:52:53;;;;;;;11.70;9.77;;;18.60;99.90;;;;;;4996116;28;20560;-60
2023/08/06 10:55:28;;;;;;;11.70;9.13;;;18.60;99.90;;;;;;4998219;28;20442;-60
2023/08/06 10:57:56;;;;;;;13.80;9.53;;;18.60;99.90;;;;;;5000945;28;20501;-60
2023/08/06 11:00:25;;;;;;;9.90;8.80;;;18.70;99.90;;;;;;5005520;28;20470;-59
2023/08/06 11:02:53;;;;;;;10.20;8.80;;;18.70;99.90;;;;;;5006566;28;20465;-56
2023/08/06 11:05:20;;;;;;;12.23;9.10;;;18.70;99.90;;;;;;4995870;28;20446;-59
2023/08/06 11:07:49;;;;;;;38.47;10.63;;;18.80;99.90;;;;;;4995859;28;20544;-60
2023/08/06 11:10:17;;;;;;;11.30;9.43;;;18.80;99.90;;;;;;4995740;28;20845;-60
2023/08/06 11:12:44;;;;;;;10.50;9.03;;;18.90;99.90;;;;;;4996727;28;20552;-60
2023/08/06 11:15:12;;;;;;;13.07;8.47;;;19.00;99.90;;;;;;4998565;28;20510;-58
2023/08/06 11:17:41;;;;;;;11.00;9.17;;;19.10;99.90;;;;;;4997837;28;20470;-60
2023/08/06 11:20:11;;;;;;;10.03;8.47;;;19.10;99.90;;;;;;4999275;28;20440;-53
2023/08/06 11:22:39;;;;;;;12.17;10.10;;;19.20;99.90;;;;;;5019431;28;20415;-51
2023/08/06 11:25:07;;;;;;;12.30;8.80;;;19.30;99.90;;;;;;5019345;28;20477;-53
2023/08/06 11:27:34;;;;;;;11.63;8.40;;;19.30;99.90;;;;;;5017204;28;20468;-59
2023/08/06 11:30:01;;;;;;;12.13;9.03;;;19.40;99.90;;;;;;5017145;28;20433;-60
2023/08/06 11:32:28;;;;;;;11.60;9.43;;;19.40;99.90;;;;;;5017039;28;20453;-58
2023/08/06 11:34:57;;;;;;;9.63;8.00;;;19.40;99.90;;;;;;5016875;28;20446;-58
2023/08/06 11:37:27;;;;;;;9.10;7.63;;;19.50;99.90;;;;;;5012958;28;20486;-59
2023/08/06 11:39:54;;;;;;;10.30;8.13;;;19.50;99.90;;;;;;4996025;28;20540;-59
2023/08/06 11:42:21;;;;;;;9.00;7.50;;;19.50;99.90;;;;;;5009854;28;20445;-59
2023/08/06 11:44:48;;;;;;;8.50;7.40;;;19.50;99.90;;;;;;5015390;28;20470;-61
2023/08/06 11:47:17;;;;;;;9.30;7.27;;;19.50;99.90;;;;;;4995429;28;20481;-59
2023/08/06 11:49:48;;;;;;;7.57;6.77;;;19.50;99.90;;;;;;4997762;28;20557;-53
2023/08/06 11:52:22;;;;;;;9.93;8.93;;;19.50;99.90;;;;;;5019250;28;20402;-47
2023/08/06 11:55:06;;;;;;;8.63;7.73;;;19.50;99.90;;;;;;5019191;28;20438;-49
2023/08/06 11:57:35;;;;;;;11.63;8.87;;;19.50;99.90;;;;;;5013816;28;20565;-59
2023/08/06 12:00:04;;;;;;;10.63;7.40;;;19.40;99.90;;;;;;5005866;28;20480;-58
2023/08/06 12:02:36;;;;;;;10.17;7.97;;;19.40;99.90;;;;;;5001316;28;20419;-47
2023/08/06 12:05:11;;;;;;;9.57;7.73;;;19.50;99.90;;;;;;5018895;28;20465;-47
2023/08/06 12:07:41;;;;;;;8.57;7.70;;;19.50;99.90;;;;;;5017298;28;20418;-55
2023/08/06 12:10:11;;;;;;;9.40;8.40;;;19.50;99.90;;;;;;5019178;28;20465;-57
2023/08/06 12:12:38;;;;;;;9.00;7.70;;;19.50;99.90;;;;;;5018333;28;20454;-56
2023/08/06 12:15:07;;;;;;;10.20;7.90;;;19.60;99.90;;;;;;5016573;28;20549;-55
2023/08/06 12:17:34;;;;;;;8.60;6.87;;;19.60;99.90;;;;;;5002595;28;20481;-44
2023/08/06 12:20:01;;;;;;;12.40;9.53;;;19.60;99.90;;;;;;5022620;28;20465;-48
2023/08/06 12:22:28;;;;;;;17.23;9.43;;;19.50;99.90;;;;;;5022806;28;20403;-49
2023/08/06 12:24:56;;;;;;;11.43;7.37;;;19.40;99.90;;;;;;5004220;28;20564;-59
2023/08/06 12:27:23;;;;;;;12.10;8.37;;;19.30;99.90;;;;;;5003858;28;20926;-59
2023/08/06 12:29:50;;;;;;;10.73;9.13;;;19.30;99.90;;;;;;5010401;28;20425;-51
2023/08/06 12:32:16;;;;;;;10.53;8.80;;;19.20;99.90;;;;;;5022492;28;20413;-46
2023/08/06 12:34:44;;;;;;;10.07;8.17;;;19.20;99.90;;;;;;5022038;28;20429;-53
2023/08/06 12:37:11;;;;;;;11.00;9.73;;;19.20;99.90;;;;;;5013877;28;20485;-59
2023/08/06 12:39:38;;;;;;;12.20;8.57;;;19.10;99.90;;;;;;5003941;28;20484;-61
2023/08/06 12:42:07;;;;;;;11.33;8.70;;;19.10;99.90;;;;;;4998474;28;20500;-59
2023/08/06 12:44:34;;;;;;;11.50;8.07;;;19.10;99.90;;;;;;4998466;28;20481;-61
2023/08/06 12:47:01;;;;;;;11.00;8.77;;;19.00;99.90;;;;;;5018458;28;20449;-51